sensor_id;sensor_type;location;lat;lon;timestamp;pressure;altitude;pressure_sealevel;temperature;humidity
15260;BME280;34462;51.368;12.364;2023-03-21T00:01:06;19494.78;;;-141.84;76.03
15260;BME280;34462;51.368;12.364;2023-03-21T00:03:34;19486.66;;;-141.84;75.98
15260;BME280;34462;51.368;12.364;2023-03-21T00:06:11;19470.38;;;-141.84;75.79
15260;BME280;34462;51.368;12.364;2023-03-21T00:08:40;19492.75;;;-141.84;74.96
15260;BME280;34462;51.368;12.364;2023-03-21T00:11:12;19486.66;;;-141.84;75.02
15260;BME280;34462;51.368;12.364;2023-03-21T00:13:41;19478.50;;;-141.84;75.40
15260;BME280;34462;51.368;12.364;2023-03-21T00:16:12;19496.81;;;-141.84;75.46
15260;BME280;34462;51.368;12.364;2023-03-21T00:18:55;19488.69;;;-141.84;73.80
15260;BME280;34462;51.368;12.364;2023-03-21T00:21:25;19509.00;;;-141.84;74.08
15260;BME280;34462;51.368;12.364;2023-03-21T00:24:18;19470.38;;;-141.84;73.50
15260;BME280;34462;51.368;12.364;2023-03-21T00:26:48;19472.41;;;-141.84;73.71
15260;BME280;34462;51.368;12.364;2023-03-21T00:29:16;19468.34;;;-141.84;73.84
15260;BME280;34462;51.368;12.364;2023-03-21T00:31:44;19492.75;;;-141.84;74.08
15260;BME280;34462;51.368;12.364;2023-03-21T00:34:13;19509.00;;;-141.84;74.15
15260;BME280;34462;51.368;12.364;2023-03-21T00:36:43;19484.59;;;-141.84;74.45
15260;BME280;34462;51.368;12.364;2023-03-21T00:39:12;19462.25;;;-141.84;73.87
15260;BME280;34462;51.368;12.364;2023-03-21T00:41:41;19504.94;;;-141.84;72.77
15260;BME280;34462;51.368;12.364;2023-03-21T00:44:11;19492.75;;;-141.84;72.15
15260;BME280;34462;51.368;12.364;2023-03-21T00:46:42;19478.50;;;-141.84;71.95
15260;BME280;34462;51.368;12.364;2023-03-21T00:49:31;19476.47;;;-141.84;72.04
15260;BME280;34462;51.368;12.364;2023-03-21T00:52:04;19478.50;;;-141.84;71.90
15260;BME280;34462;51.368;12.364;2023-03-21T00:54:53;19553.72;;;-141.84;70.55
15260;BME280;34462;51.368;12.364;2023-03-21T00:57:21;19521.19;;;-141.84;71.97
15260;BME280;34462;51.368;12.364;2023-03-21T01:00:06;19535.41;;;-141.84;73.14
15260;BME280;34462;51.368;12.364;2023-03-21T01:02:36;19462.25;;;-141.84;73.25
15260;BME280;34462;51.368;12.364;2023-03-21T01:05:11;19492.75;;;-141.84;74.06
15260;BME280;34462;51.368;12.364;2023-03-21T01:08:00;19456.16;;;-141.84;74.43
15260;BME280;34462;51.368;12.364;2023-03-21T01:10:38;19439.91;;;-141.84;75.69
15260;BME280;34462;51.368;12.364;2023-03-21T01:13:09;19448.03;;;-141.84;76.62
15260;BME280;34462;51.368;12.364;2023-03-21T01:15:44;19464.28;;;-141.84;77.21
15260;BME280;34462;51.368;12.364;2023-03-21T01:18:14;19423.66;;;-141.84;78.08
15260;BME280;34462;51.368;12.364;2023-03-21T01:20:44;19395.19;;;-141.84;79.19
15260;BME280;34462;51.368;12.364;2023-03-21T01:23:15;19391.13;;;-141.84;79.82
15260;BME280;34462;51.368;12.364;2023-03-21T01:25:46;19411.44;;;-141.84;80.38
15260;BME280;34462;51.368;12.364;2023-03-21T01:28:15;19372.84;;;-141.84;80.08
15260;BME280;34462;51.368;12.364;2023-03-21T01:30:47;19346.44;;;-141.84;81.09
15260;BME280;34462;51.368;12.364;2023-03-21T01:33:16;19385.03;;;-141.84;81.50
15260;BME280;34462;51.368;12.364;2023-03-21T01:35:45;19374.88;;;-141.84;82.00
15260;BME280;34462;51.368;12.364;2023-03-21T01:38:25;19378.94;;;-141.84;82.34
15260;BME280;34462;51.368;12.364;2023-03-21T01:40:53;19362.69;;;-141.84;82.17
15260;BME280;34462;51.368;12.364;2023-03-21T01:43:26;19354.56;;;-141.84;82.51
15260;BME280;34462;51.368;12.364;2023-03-21T01:46:21;19358.63;;;-141.84;83.17
15260;BME280;34462;51.368;12.364;2023-03-21T01:48:58;19336.25;;;-141.84;83.37
15260;BME280;34462;51.368;12.364;2023-03-21T01:51:29;19366.75;;;-141.84;83.72
15260;BME280;34462;51.368;12.364;2023-03-21T01:54:01;19376.91;;;-141.84;83.19
15260;BME280;34462;51.368;12.364;2023-03-21T01:56:33;19340.31;;;-141.84;83.70
15260;BME280;34462;51.368;12.364;2023-03-21T01:59:08;19358.63;;;-141.84;83.05
15260;BME280;34462;51.368;12.364;2023-03-21T02:01:39;19389.09;;;-141.84;82.50
15260;BME280;34462;51.368;12.364;2023-03-21T02:04:10;19350.50;;;-141.84;82.29
15260;BME280;34462;51.368;12.364;2023-03-21T02:06:45;19380.97;;;-141.84;82.76
15260;BME280;34462;51.368;12.364;2023-03-21T02:09:21;19364.72;;;-141.84;83.20
15260;BME280;34462;51.368;12.364;2023-03-21T02:11:53;19397.22;;;-141.84;82.56
15260;BME280;34462;51.368;12.364;2023-03-21T02:14:22;19401.28;;;-141.84;81.98
15260;BME280;34462;51.368;12.364;2023-03-21T02:17:04;19387.06;;;-141.84;82.30
15260;BME280;34462;51.368;12.364;2023-03-21T02:26:42;19334.22;;;-141.84;83.27
15260;BME280;34462;51.368;12.364;2023-03-21T02:33:15;19334.22;;;-141.84;83.27
15260;BME280;34462;51.368;12.364;2023-03-21T02:36:21;19378.94;;;-141.84;82.79
15260;BME280;34462;51.368;12.364;2023-03-21T02:39:03;19358.63;;;-141.84;82.37
15260;BME280;34462;51.368;12.364;2023-03-21T02:41:46;19372.84;;;-141.84;82.31
15260;BME280;34462;51.368;12.364;2023-03-21T02:44:22;19358.63;;;-141.84;82.46
15260;BME280;34462;51.368;12.364;2023-03-21T02:47:00;19374.88;;;-141.84;82.99
15260;BME280;34462;51.368;12.364;2023-03-21T02:49:39;19342.34;;;-141.84;83.47
15260;BME280;34462;51.368;12.364;2023-03-21T02:52:13;19370.81;;;-141.84;83.34
15260;BME280;34462;51.368;12.364;2023-03-21T02:55:08;19342.34;;;-141.84;82.42
15260;BME280;34462;51.368;12.364;2023-03-21T02:57:42;19364.72;;;-141.84;81.84
15260;BME280;34462;51.368;12.364;2023-03-21T03:00:18;19360.66;;;-141.84;81.83
15260;BME280;34462;51.368;12.364;2023-03-21T03:02:47;19366.75;;;-141.84;81.86
15260;BME280;34462;51.368;12.364;2023-03-21T03:05:41;19370.81;;;-141.84;81.61
15260;BME280;34462;51.368;12.364;2023-03-21T03:08:26;19366.75;;;-141.84;81.87
15260;BME280;34462;51.368;12.364;2023-03-21T03:11:25;19385.03;;;-141.84;81.96
15260;BME280;34462;51.368;12.364;2023-03-21T03:14:25;19366.75;;;-141.84;81.85
15260;BME280;34462;51.368;12.364;2023-03-21T03:17:34;19403.31;;;-141.84;82.07
15260;BME280;34462;51.368;12.364;2023-03-21T03:20:22;19358.63;;;-141.84;81.77
15260;BME280;34462;51.368;12.364;2023-03-21T03:23:03;19397.22;;;-141.84;81.06
15260;BME280;34462;51.368;12.364;2023-03-21T03:25:39;19380.97;;;-141.84;81.03
15260;BME280;34462;51.368;12.364;2023-03-21T03:28:14;19380.97;;;-141.84;81.04
15260;BME280;34462;51.368;12.364;2023-03-21T03:30:45;19372.84;;;-141.84;81.52
15260;BME280;34462;51.368;12.364;2023-03-21T03:33:37;19358.63;;;-141.84;81.13
15260;BME280;34462;51.368;12.364;2023-03-21T03:36:10;19362.69;;;-141.84;81.15
15260;BME280;34462;51.368;12.364;2023-03-21T03:38:58;19374.88;;;-141.84;80.96
15260;BME280;34462;51.368;12.364;2023-03-21T03:41:27;19366.75;;;-141.84;80.50
15260;BME280;34462;51.368;12.364;2023-03-21T03:44:17;19393.16;;;-141.84;79.88
15260;BME280;34462;51.368;12.364;2023-03-21T03:46:52;19346.44;;;-141.84;80.11
15260;BME280;34462;51.368;12.364;2023-03-21T03:49:28;19370.81;;;-141.84;80.13
15260;BME280;34462;51.368;12.364;2023-03-21T03:52:02;19376.91;;;-141.84;79.68
15260;BME280;34462;51.368;12.364;2023-03-21T03:54:36;19356.59;;;-141.84;80.46
15260;BME280;34462;51.368;12.364;2023-03-21T03:57:06;19411.44;;;-141.84;79.64
15260;BME280;34462;51.368;12.364;2023-03-21T03:59:37;19366.75;;;-141.84;79.91
15260;BME280;34462;51.368;12.364;2023-03-21T04:02:06;19385.03;;;-141.84;80.00
15260;BME280;34462;51.368;12.364;2023-03-21T04:04:35;19358.63;;;-141.84;80.01
15260;BME280;34462;51.368;12.364;2023-03-21T04:07:04;19411.44;;;-141.84;80.25
15260;BME280;34462;51.368;12.364;2023-03-21T04:09:33;19391.13;;;-141.84;79.24
15260;BME280;34462;51.368;12.364;2023-03-21T04:12:11;19383.00;;;-141.84;79.19
15260;BME280;34462;51.368;12.364;2023-03-21T04:14:41;19411.44;;;-141.84;78.93
15260;BME280;34462;51.368;12.364;2023-03-21T04:17:13;19378.94;;;-141.84;79.17
15260;BME280;34462;51.368;12.364;2023-03-21T04:19:42;19405.34;;;-141.84;78.87
15260;BME280;34462;51.368;12.364;2023-03-21T04:22:12;19395.19;;;-141.84;78.69
15260;BME280;34462;51.368;12.364;2023-03-21T04:24:40;19399.25;;;-141.84;78.01
15260;BME280;34462;51.368;12.364;2023-03-21T04:27:08;19368.78;;;-141.84;78.71
15260;BME280;34462;51.368;12.364;2023-03-21T04:29:37;19405.34;;;-141.84;78.90
15260;BME280;34462;51.368;12.364;2023-03-21T04:32:07;19374.88;;;-141.84;79.08
15260;BME280;34462;51.368;12.364;2023-03-21T04:34:45;19374.88;;;-141.84;79.32
15260;BME280;34462;51.368;12.364;2023-03-21T04:37:16;19358.63;;;-141.84;78.99
15260;BME280;34462;51.368;12.364;2023-03-21T04:39:45;19407.38;;;-141.84;79.01
15260;BME280;34462;51.368;12.364;2023-03-21T04:42:16;19362.69;;;-141.84;79.24
15260;BME280;34462;51.368;12.364;2023-03-21T04:44:45;19370.81;;;-141.84;78.64
15260;BME280;34462;51.368;12.364;2023-03-21T04:47:15;19411.44;;;-141.84;77.99
15260;BME280;34462;51.368;12.364;2023-03-21T04:49:46;19423.66;;;-141.84;78.22
15260;BME280;34462;51.368;12.364;2023-03-21T04:52:15;19389.09;;;-141.84;77.81
15260;BME280;34462;51.368;12.364;2023-03-21T04:54:43;19374.88;;;-141.84;78.37
15260;BME280;34462;51.368;12.364;2023-03-21T04:57:12;19387.06;;;-141.84;78.38
15260;BME280;34462;51.368;12.364;2023-03-21T04:59:40;19383.00;;;-141.84;78.89
15260;BME280;34462;51.368;12.364;2023-03-21T05:02:09;19399.25;;;-141.84;78.95
15260;BME280;34462;51.368;12.364;2023-03-21T05:04:39;19391.13;;;-141.84;79.08
15260;BME280;34462;51.368;12.364;2023-03-21T05:07:07;19423.66;;;-141.84;78.35
15260;BME280;34462;51.368;12.364;2023-03-21T05:09:35;19407.38;;;-141.84;78.06
15260;BME280;34462;51.368;12.364;2023-03-21T05:12:04;19423.66;;;-141.84;77.24
15260;BME280;34462;51.368;12.364;2023-03-21T05:14:32;19407.38;;;-141.84;77.70
15260;BME280;34462;51.368;12.364;2023-03-21T05:17:00;19407.38;;;-141.84;78.29
15260;BME280;34462;51.368;12.364;2023-03-21T05:19:31;19387.06;;;-141.84;78.34
15260;BME280;34462;51.368;12.364;2023-03-21T05:22:06;19401.28;;;-141.84;77.99
15260;BME280;34462;51.368;12.364;2023-03-21T05:24:36;19407.38;;;-141.84;78.25
15260;BME280;34462;51.368;12.364;2023-03-21T05:27:07;19439.91;;;-141.84;77.95
15260;BME280;34462;51.368;12.364;2023-03-21T05:29:35;19437.88;;;-141.84;77.93
15260;BME280;34462;51.368;12.364;2023-03-21T05:32:04;19435.84;;;-141.84;77.30
15260;BME280;34462;51.368;12.364;2023-03-21T05:34:32;19429.75;;;-141.84;77.25
15260;BME280;34462;51.368;12.364;2023-03-21T05:37:00;19407.38;;;-141.84;77.23
15260;BME280;34462;51.368;12.364;2023-03-21T05:39:30;19421.63;;;-141.84;77.03
15260;BME280;34462;51.368;12.364;2023-03-21T05:41:58;19425.69;;;-141.84;77.15
15260;BME280;34462;51.368;12.364;2023-03-21T05:44:26;19439.91;;;-141.84;77.06
15260;BME280;34462;51.368;12.364;2023-03-21T05:46:54;19401.28;;;-141.84;76.30
15260;BME280;34462;51.368;12.364;2023-03-21T05:49:22;19464.28;;;-141.84;75.58
15260;BME280;34462;51.368;12.364;2023-03-21T05:51:50;19443.97;;;-141.84;75.50
15260;BME280;34462;51.368;12.364;2023-03-21T05:54:19;19462.25;;;-141.84;76.14
15260;BME280;34462;51.368;12.364;2023-03-21T05:56:48;19429.75;;;-141.84;76.36
15260;BME280;34462;51.368;12.364;2023-03-21T05:59:16;19462.25;;;-141.84;76.07
15260;BME280;34462;51.368;12.364;2023-03-21T06:01:44;19450.06;;;-141.84;76.49
15260;BME280;34462;51.368;12.364;2023-03-21T06:04:13;19437.88;;;-141.84;76.28
15260;BME280;34462;51.368;12.364;2023-03-21T06:06:41;19441.94;;;-141.84;76.24
15260;BME280;34462;51.368;12.364;2023-03-21T06:09:09;19454.13;;;-141.84;75.27
15260;BME280;34462;51.368;12.364;2023-03-21T06:11:43;19468.34;;;-141.84;74.84
15260;BME280;34462;51.368;12.364;2023-03-21T06:14:15;19443.97;;;-141.84;75.14
15260;BME280;34462;51.368;12.364;2023-03-21T06:16:43;19437.88;;;-141.84;75.43
15260;BME280;34462;51.368;12.364;2023-03-21T06:19:12;19470.38;;;-141.84;74.91
15260;BME280;34462;51.368;12.364;2023-03-21T06:21:40;19496.81;;;-141.84;74.73
15260;BME280;34462;51.368;12.364;2023-03-21T06:24:09;19517.13;;;-141.84;74.24
15260;BME280;34462;51.368;12.364;2023-03-21T06:26:37;19484.59;;;-141.84;74.57
15260;BME280;34462;51.368;12.364;2023-03-21T06:29:05;19541.50;;;-141.84;74.27
15260;BME280;34462;51.368;12.364;2023-03-21T06:31:34;19553.72;;;-141.84;72.85
15260;BME280;34462;51.368;12.364;2023-03-21T06:34:03;19521.19;;;-141.84;72.01
15260;BME280;34462;51.368;12.364;2023-03-21T06:36:31;19511.03;;;-141.84;72.18
15260;BME280;34462;51.368;12.364;2023-03-21T06:39:00;19559.81;;;-141.84;71.60
15260;BME280;34462;51.368;12.364;2023-03-21T06:41:28;19539.47;;;-141.84;71.27
15260;BME280;34462;51.368;12.364;2023-03-21T06:43:56;19598.41;;;-141.84;69.44
15260;BME280;34462;51.368;12.364;2023-03-21T06:46:24;19557.78;;;-141.84;70.57
15260;BME280;34462;51.368;12.364;2023-03-21T06:48:54;19596.38;;;-141.84;70.88
15260;BME280;34462;51.368;12.364;2023-03-21T06:51:22;19523.22;;;-141.84;71.22
15260;BME280;34462;51.368;12.364;2023-03-21T06:53:50;19541.50;;;-141.84;70.69
15260;BME280;34462;51.368;12.364;2023-03-21T06:56:18;19578.09;;;-141.84;70.23
15260;BME280;34462;51.368;12.364;2023-03-21T06:58:47;19537.44;;;-141.84;70.76
15260;BME280;34462;51.368;12.364;2023-03-21T07:01:15;19567.94;;;-141.84;70.57
15260;BME280;34462;51.368;12.364;2023-03-21T07:03:43;19576.06;;;-141.84;69.75
15260;BME280;34462;51.368;12.364;2023-03-21T07:06:13;19549.63;;;-141.84;70.18
15260;BME280;34462;51.368;12.364;2023-03-21T07:08:42;19580.13;;;-141.84;68.82
15260;BME280;34462;51.368;12.364;2023-03-21T07:11:10;19602.47;;;-141.84;69.49
15260;BME280;34462;51.368;12.364;2023-03-21T07:13:38;19608.56;;;-141.84;68.57
15260;BME280;34462;51.368;12.364;2023-03-21T07:16:08;19616.72;;;-141.84;67.82
15260;BME280;34462;51.368;12.364;2023-03-21T07:18:37;19641.09;;;-141.84;67.43
15260;BME280;34462;51.368;12.364;2023-03-21T07:21:06;19606.53;;;-141.84;67.65
15260;BME280;34462;51.368;12.364;2023-03-21T07:23:36;19665.47;;;-141.84;67.06
15260;BME280;34462;51.368;12.364;2023-03-21T07:26:06;19671.56;;;-141.84;66.54
15260;BME280;34462;51.368;12.364;2023-03-21T07:28:34;19667.50;;;-141.84;67.11
15260;BME280;34462;51.368;12.364;2023-03-21T07:31:05;19663.44;;;-141.84;67.38
15260;BME280;34462;51.368;12.364;2023-03-21T07:33:34;19659.38;;;-141.84;67.30
15260;BME280;34462;51.368;12.364;2023-03-21T07:36:02;19708.16;;;-141.84;65.79
15260;BME280;34462;51.368;12.364;2023-03-21T07:38:31;19756.94;;;-141.84;65.60
15260;BME280;34462;51.368;12.364;2023-03-21T07:41:00;19761.00;;;-141.84;64.25
15260;BME280;34462;51.368;12.364;2023-03-21T07:43:28;19787.41;;;-141.84;64.59
15260;BME280;34462;51.368;12.364;2023-03-21T07:45:58;19815.88;;;-141.84;63.97
15260;BME280;34462;51.368;12.364;2023-03-21T07:48:27;19785.38;;;-141.84;63.59
15260;BME280;34462;51.368;12.364;2023-03-21T07:50:56;19809.78;;;-141.84;63.55
15260;BME280;34462;51.368;12.364;2023-03-21T07:53:24;19805.72;;;-141.84;63.26
15260;BME280;34462;51.368;12.364;2023-03-21T07:55:54;19836.19;;;-141.84;63.38
15260;BME280;34462;51.368;12.364;2023-03-21T07:58:24;19815.88;;;-141.84;63.56
15260;BME280;34462;51.368;12.364;2023-03-21T08:00:53;19763.03;;;-141.84;63.44
15260;BME280;34462;51.368;12.364;2023-03-21T08:03:22;19824.00;;;-141.84;63.23
15260;BME280;34462;51.368;12.364;2023-03-21T08:05:52;19838.22;;;-141.84;62.51
15260;BME280;34462;51.368;12.364;2023-03-21T08:08:20;19868.72;;;-141.84;61.95
15260;BME280;34462;51.368;12.364;2023-03-21T08:10:48;19866.69;;;-141.84;62.63
15260;BME280;34462;51.368;12.364;2023-03-21T08:13:16;19838.22;;;-141.84;61.40
15260;BME280;34462;51.368;12.364;2023-03-21T08:15:46;19878.88;;;-141.84;61.45
15260;BME280;34462;51.368;12.364;2023-03-21T08:18:14;19856.53;;;-141.84;61.13
15260;BME280;34462;51.368;12.364;2023-03-21T08:20:42;19901.22;;;-141.84;60.90
15260;BME280;34462;51.368;12.364;2023-03-21T08:23:10;19895.13;;;-141.84;60.46
15260;BME280;34462;51.368;12.364;2023-03-21T08:25:39;19905.28;;;-141.84;60.89
15260;BME280;34462;51.368;12.364;2023-03-21T08:28:07;19974.41;;;-141.84;60.00
15260;BME280;34462;51.368;12.364;2023-03-21T08:30:37;19962.19;;;-141.84;59.49
15260;BME280;34462;51.368;12.364;2023-03-21T08:33:07;19968.31;;;-141.84;59.62
15260;BME280;34462;51.368;12.364;2023-03-21T08:35:35;19972.38;;;-141.84;59.08
15260;BME280;34462;51.368;12.364;2023-03-21T08:38:07;19943.91;;;-141.84;60.23
15260;BME280;34462;51.368;12.364;2023-03-21T08:40:36;19915.47;;;-141.84;60.48
15260;BME280;34462;51.368;12.364;2023-03-21T08:43:04;19947.97;;;-141.84;60.42
15260;BME280;34462;51.368;12.364;2023-03-21T08:45:32;19950.00;;;-141.84;60.01
15260;BME280;34462;51.368;12.364;2023-03-21T08:48:01;20023.19;;;-141.84;59.36
15260;BME280;34462;51.368;12.364;2023-03-21T08:50:30;20010.97;;;-141.84;57.77
15260;BME280;34462;51.368;12.364;2023-03-21T08:52:59;20057.72;;;-141.84;57.94
15260;BME280;34462;51.368;12.364;2023-03-21T08:55:27;20000.81;;;-141.84;59.03
15260;BME280;34462;51.368;12.364;2023-03-21T08:57:56;20025.22;;;-141.84;58.45
15260;BME280;34462;51.368;12.364;2023-03-21T09:00:25;20023.19;;;-141.84;58.44
15260;BME280;34462;51.368;12.364;2023-03-21T09:02:53;20098.38;;;-141.84;57.04
15260;BME280;34462;51.368;12.364;2023-03-21T09:05:22;20071.97;;;-141.84;56.84
15260;BME280;34462;51.368;12.364;2023-03-21T09:07:53;20098.38;;;-141.84;56.91
15260;BME280;34462;51.368;12.364;2023-03-21T09:10:22;20094.31;;;-141.84;57.59
15260;BME280;34462;51.368;12.364;2023-03-21T09:12:53;20071.97;;;-141.84;56.79
15260;BME280;34462;51.368;12.364;2023-03-21T09:15:24;20041.47;;;-141.84;57.52
15260;BME280;34462;51.368;12.364;2023-03-21T09:17:55;20006.91;;;-141.84;58.56
15260;BME280;34462;51.368;12.364;2023-03-21T09:20:26;20049.59;;;-141.84;57.98
15260;BME280;34462;51.368;12.364;2023-03-21T09:23:00;20065.84;;;-141.84;57.58
15260;BME280;34462;51.368;12.364;2023-03-21T09:25:28;20096.34;;;-141.84;57.81
15260;BME280;34462;51.368;12.364;2023-03-21T09:27:58;20145.13;;;-141.84;57.15
15260;BME280;34462;51.368;12.364;2023-03-21T09:30:27;20155.28;;;-141.84;56.10
15260;BME280;34462;51.368;12.364;2023-03-21T09:32:58;20161.38;;;-141.84;55.92
15260;BME280;34462;51.368;12.364;2023-03-21T09:35:28;20132.94;;;-141.84;56.46
15260;BME280;34462;51.368;12.364;2023-03-21T09:37:56;20157.31;;;-141.84;57.26
15260;BME280;34462;51.368;12.364;2023-03-21T09:40:54;20159.34;;;-141.84;57.08
15260;BME280;34462;51.368;12.364;2023-03-21T09:43:40;20183.75;;;-141.84;56.26
15260;BME280;34462;51.368;12.364;2023-03-21T09:46:23;20155.28;;;-141.84;56.37
15260;BME280;34462;51.368;12.364;2023-03-21T09:48:58;20210.16;;;-141.84;56.38
15260;BME280;34462;51.368;12.364;2023-03-21T09:51:35;20232.53;;;-141.84;56.43
15260;BME280;34462;51.368;12.364;2023-03-21T09:54:14;20254.88;;;-141.84;55.80
15260;BME280;34462;51.368;12.364;2023-03-21T09:56:48;20236.59;;;-141.84;56.01
15260;BME280;34462;51.368;12.364;2023-03-21T09:59:25;20263.00;;;-141.84;54.62
15260;BME280;34462;51.368;12.364;2023-03-21T10:01:58;20250.81;;;-141.84;55.51
15260;BME280;34462;51.368;12.364;2023-03-21T10:04:27;20258.94;;;-141.84;55.15
15260;BME280;34462;51.368;12.364;2023-03-21T10:07:00;20267.09;;;-141.84;55.45
15260;BME280;34462;51.368;12.364;2023-03-21T10:09:31;20275.22;;;-141.84;55.35
15260;BME280;34462;51.368;12.364;2023-03-21T10:12:07;20287.41;;;-141.84;54.81
15260;BME280;34462;51.368;12.364;2023-03-21T10:14:45;20283.34;;;-141.84;55.01
15260;BME280;34462;51.368;12.364;2023-03-21T10:17:26;20324.00;;;-141.84;55.00
15260;BME280;34462;51.368;12.364;2023-03-21T10:20:03;20364.66;;;-141.84;54.63
15260;BME280;34462;51.368;12.364;2023-03-21T10:22:38;20358.56;;;-141.84;54.52
15260;BME280;34462;51.368;12.364;2023-03-21T10:25:12;20319.94;;;-141.84;54.97
15260;BME280;34462;51.368;12.364;2023-03-21T10:27:43;20401.22;;;-141.84;53.86
15260;BME280;34462;51.368;12.364;2023-03-21T10:30:25;20389.03;;;-141.84;53.42
15260;BME280;34462;51.368;12.364;2023-03-21T10:32:58;20494.75;;;-141.84;53.29
15260;BME280;34462;51.368;12.364;2023-03-21T10:35:28;20427.66;;;-141.84;52.92
15260;BME280;34462;51.368;12.364;2023-03-21T10:38:00;20354.47;;;-141.84;53.51
15260;BME280;34462;51.368;12.364;2023-03-21T10:40:28;20319.94;;;-141.84;54.22
15260;BME280;34462;51.368;12.364;2023-03-21T10:43:18;20370.75;;;-141.84;53.70
15260;BME280;34462;51.368;12.364;2023-03-21T10:45:47;20389.03;;;-141.84;53.29
15260;BME280;34462;51.368;12.364;2023-03-21T10:48:15;20407.34;;;-141.84;52.92
15260;BME280;34462;51.368;12.364;2023-03-21T10:50:48;20407.34;;;-141.84;53.00
15260;BME280;34462;51.368;12.364;2023-03-21T10:53:22;20409.38;;;-141.84;52.71
15260;BME280;34462;51.368;12.364;2023-03-21T10:55:58;20439.84;;;-141.84;52.75
15260;BME280;34462;51.368;12.364;2023-03-21T10:58:34;20433.75;;;-141.84;52.84
15260;BME280;34462;51.368;12.364;2023-03-21T11:01:09;20450.03;;;-141.84;53.37
15260;BME280;34462;51.368;12.364;2023-03-21T11:03:43;20425.63;;;-141.84;53.62
15260;BME280;34462;51.368;12.364;2023-03-21T11:06:21;20443.91;;;-141.84;52.40
15260;BME280;34462;51.368;12.364;2023-03-21T11:08:54;20387.00;;;-141.84;53.24
15260;BME280;34462;51.368;12.364;2023-03-21T11:11:26;20409.38;;;-141.84;53.75
15260;BME280;34462;51.368;12.364;2023-03-21T11:13:59;20443.91;;;-141.84;53.49
15260;BME280;34462;51.368;12.364;2023-03-21T11:16:37;20411.41;;;-141.84;53.70
15260;BME280;34462;51.368;12.364;2023-03-21T11:19:15;20370.75;;;-141.84;54.01
15260;BME280;34462;51.368;12.364;2023-03-21T11:21:44;20358.56;;;-141.84;54.50
15260;BME280;34462;51.368;12.364;2023-03-21T11:24:16;20417.50;;;-141.84;53.51
15260;BME280;34462;51.368;12.364;2023-03-21T11:26:47;20445.94;;;-141.84;53.25
15260;BME280;34462;51.368;12.364;2023-03-21T11:29:29;20547.59;;;-141.84;52.75
15260;BME280;34462;51.368;12.364;2023-03-21T11:31:59;20541.50;;;-141.84;51.99
15260;BME280;34462;51.368;12.364;2023-03-21T11:34:40;20610.59;;;-141.84;51.25
15260;BME280;34462;51.368;12.364;2023-03-21T11:37:19;20643.13;;;-141.84;50.11
15260;BME280;34462;51.368;12.364;2023-03-21T11:39:55;20647.19;;;-141.84;50.80
15260;BME280;34462;51.368;12.364;2023-03-21T11:42:27;20624.84;;;-141.84;50.38
15260;BME280;34462;51.368;12.364;2023-03-21T11:45:10;20647.19;;;-141.84;50.03
15260;BME280;34462;51.368;12.364;2023-03-21T11:47:39;20555.72;;;-141.84;50.70
15260;BME280;34462;51.368;12.364;2023-03-21T11:50:19;20594.34;;;-141.84;50.30
15260;BME280;34462;51.368;12.364;2023-03-21T11:53:16;20679.72;;;-141.84;49.71
15260;BME280;34462;51.368;12.364;2023-03-21T11:56:15;20604.50;;;-141.84;50.00
15260;BME280;34462;51.368;12.364;2023-03-21T11:59:10;20651.25;;;-141.84;49.92
15260;BME280;34462;51.368;12.364;2023-03-21T12:02:02;20783.41;;;-141.84;49.31
15260;BME280;34462;51.368;12.364;2023-03-21T12:04:39;20728.50;;;-141.84;48.50
15260;BME280;34462;51.368;12.364;2023-03-21T12:07:34;20754.94;;;-141.84;48.96
15260;BME280;34462;51.368;12.364;2023-03-21T12:10:31;20759.00;;;-141.84;48.61
15260;BME280;34462;51.368;12.364;2023-03-21T12:13:22;20698.00;;;-141.84;49.12
15260;BME280;34462;51.368;12.364;2023-03-21T12:16:06;20675.66;;;-141.84;49.99
15260;BME280;34462;51.368;12.364;2023-03-21T12:19:00;20673.63;;;-141.84;49.74
15260;BME280;34462;51.368;12.364;2023-03-21T12:21:45;20661.44;;;-141.84;49.83
15260;BME280;34462;51.368;12.364;2023-03-21T12:24:21;20641.09;;;-141.84;49.38
15260;BME280;34462;51.368;12.364;2023-03-21T12:26:59;20730.53;;;-141.84;49.57
15260;BME280;34462;51.368;12.364;2023-03-21T12:30:02;20710.22;;;-141.84;48.76
15260;BME280;34462;51.368;12.364;2023-03-21T12:32:56;20789.50;;;-141.84;48.69
15260;BME280;34462;51.368;12.364;2023-03-21T12:35:42;20789.50;;;-141.84;49.52
15260;BME280;34462;51.368;12.364;2023-03-21T12:38:16;20815.91;;;-141.84;48.62
15260;BME280;34462;51.368;12.364;2023-03-21T12:41:11;20807.78;;;-141.84;48.94
15260;BME280;34462;51.368;12.364;2023-03-21T12:43:49;20795.59;;;-141.84;49.33
15260;BME280;34462;51.368;12.364;2023-03-21T12:46:27;20791.53;;;-141.84;49.12
15260;BME280;34462;51.368;12.364;2023-03-21T12:49:01;20781.38;;;-141.84;49.25
15260;BME280;34462;51.368;12.364;2023-03-21T12:51:36;20838.28;;;-141.84;49.48
15260;BME280;34462;51.368;12.364;2023-03-21T12:54:18;20815.91;;;-141.84;49.26
15260;BME280;34462;51.368;12.364;2023-03-21T12:56:53;20761.03;;;-141.84;49.32
15260;BME280;34462;51.368;12.364;2023-03-21T12:59:31;20803.72;;;-141.84;48.76
15260;BME280;34462;51.368;12.364;2023-03-21T13:02:21;20809.81;;;-141.84;49.29
15260;BME280;34462;51.368;12.364;2023-03-21T13:05:02;20789.50;;;-141.84;49.03
15260;BME280;34462;51.368;12.364;2023-03-21T13:07:39;20822.03;;;-141.84;48.84
15260;BME280;34462;51.368;12.364;2023-03-21T13:10:14;20846.41;;;-141.84;49.22
15260;BME280;34462;51.368;12.364;2023-03-21T13:12:59;20822.03;;;-141.84;48.96
15260;BME280;34462;51.368;12.364;2023-03-21T13:15:54;20880.97;;;-141.84;49.48